^^
Grace C. Lehan Memorial Weather Station Historical Data
Daily Summary for May 25, 2022 Units:  Both    English   Metric
Daily Weekly Monthly Yearly
  High: Low: Average:
Temperature: 29.9 °F /  -1.2 °C 13.8 °F /  -10.1 °C 20.7 °F /  -6.3 °C
Dew Point: 14.4 °F /  -9.8 °C 3.1 °F /  -16.1 °C 9.9 °F /  -12.3 °C
Humidity: 71.2% 48% 63%
Wind Speed: 5.2mph /  8.4km/h - 1.8mph /  2.9km/h
Wind Gust: 16mph /  25.7km/h - -
Wind- - SW
Pressure: 29.97 in /  1014.8 hPa 29.77 in /  1008 hPa -
Precipitation: 0.00 in /  0 mm    
 
 
Tabular Data for May 25, 2022
Time Temperature Dew Point Pressure Wind Wind Speed Wind Gust Humidity Rainfall Rate (Hourly) solar
00:30 14.1 °F /  -9.9 °C 3.1 °F /  -16.1 °C 29.77in /  1008hPa SW 3mph /  4.8km/h 14mph /  22.5km/h 61% 0.00in /  0mm 0 W/m2
01:00 14 °F /  -10 °C 3.4 °F /  -15.9 °C 29.77in /  1008hPa WSW 3mph /  4.8km/h 10mph /  16.1km/h 62% 0.00in /  0mm 0 W/m2
01:30 14.1 °F /  -9.9 °C 3.5 °F /  -15.8 °C 29.78in /  1008.4hPa SW 2mph /  3.2km/h 11mph /  17.7km/h 62% 0.00in /  0mm 0 W/m2
02:00 14.1 °F /  -9.9 °C 3.8 °F /  -15.7 °C 29.79in /  1008.7hPa WSW 3mph /  4.8km/h 16mph /  25.7km/h 63% 0.00in /  0mm 0 W/m2
02:30 14.1 °F /  -9.9 °C 3.8 °F /  -15.7 °C 29.80in /  1009hPa WSW 2mph /  3.2km/h 11mph /  17.7km/h 63% 0.00in /  0mm 0 W/m2
03:00 14 °F /  -10 °C 4.1 °F /  -15.5 °C 29.79in /  1008.7hPa WSW 2mph /  3.2km/h 11mph /  17.7km/h 64% 0.00in /  0mm 0 W/m2
03:30 14 °F /  -10 °C 4.4 °F /  -15.3 °C 29.79in /  1008.7hPa SW 3mph /  4.8km/h 10mph /  16.1km/h 65% 0.00in /  0mm 0 W/m2
04:04 13.9 °F /  -10.1 °C 4.7 °F /  -15.2 °C 29.78in /  1008.4hPa SW 3.7mph /  6km/h 6mph /  9.7km/h 66% 0.00in /  0mm 0 W/m2
04:09 13.9 °F /  -10.1 °C 4.5 °F /  -15.3 °C 29.78in /  1008.4hPa SW 3.1mph /  5km/h 9mph /  14.5km/h 65.7% 0.00in /  0mm 0 W/m2
04:14 14 °F /  -10 °C 4.7 °F /  -15.2 °C 29.78in /  1008.4hPa SW 1.4mph /  2.3km/h 9mph /  14.5km/h 66% 0.00in /  0mm 0 W/m2
04:19 14 °F /  -10 °C 4.8 °F /  -15.1 °C 29.78in /  1008.4hPa SW 2.8mph /  4.5km/h 10mph /  16.1km/h 66% 0.00in /  0mm 0 W/m2
04:24 14 °F /  -10 °C 4.8 °F /  -15.1 °C 29.79in /  1008.7hPa SW 2.6mph /  4.2km/h 10mph /  16.1km/h 66% 0.00in /  0mm 0 W/m2
04:29 14 °F /  -10 °C 4.8 °F /  -15.1 °C 29.79in /  1008.7hPa SW 1.8mph /  2.9km/h 10mph /  16.1km/h 66% 0.00in /  0mm 0 W/m2
04:34 14 °F /  -10 °C 5 °F /  -15 °C 29.79in /  1008.7hPa SW 2.6mph /  4.2km/h 10mph /  16.1km/h 66.8% 0.00in /  0mm 0 W/m2
04:39 14 °F /  -10 °C 5.1 °F /  -14.9 °C 29.79in /  1008.7hPa SW 2.5mph /  4km/h 6mph /  9.7km/h 67% 0.00in /  0mm 0 W/m2
04:44 14 °F /  -10 °C 5.1 °F /  -14.9 °C 29.79in /  1008.7hPa SW 2.6mph /  4.2km/h 6mph /  9.7km/h 67% 0.00in /  0mm 0 W/m2
04:49 14 °F /  -10 °C 5.1 °F /  -14.9 °C 29.79in /  1008.7hPa SW 1.9mph /  3.1km/h 6mph /  9.7km/h 67% 0.00in /  0mm 0 W/m2
04:54 13.9 °F /  -10.1 °C 5 °F /  -15 °C 29.80in /  1009hPa SW 1.3mph /  2.1km/h 6mph /  9.7km/h 67% 0.00in /  0mm 0 W/m2
04:59 13.9 °F /  -10.1 °C 5 °F /  -15 °C 29.80in /  1009hPa SW 0.9mph /  1.4km/h 6mph /  9.7km/h 67% 0.00in /  0mm 0 W/m2
05:04 13.9 °F /  -10.1 °C 5.2 °F /  -14.9 °C 29.80in /  1009hPa SW 0.1mph /  0.2km/h 6mph /  9.7km/h 67.8% 0.00in /  0mm 0 W/m2
05:09 13.9 °F /  -10.1 °C 5.3 °F /  -14.8 °C 29.79in /  1008.7hPa SW 0.4mph /  0.6km/h 3mph /  4.8km/h 68% 0.00in /  0mm 0 W/m2
05:14 13.9 °F /  -10.1 °C 5.3 °F /  -14.8 °C 29.79in /  1008.7hPa SW 1.1mph /  1.8km/h 4mph /  6.4km/h 68% 0.00in /  0mm 0 W/m2
05:19 13.8 °F /  -10.1 °C 5.2 °F /  -14.9 °C 29.79in /  1008.7hPa SW 1.8mph /  2.9km/h 4mph /  6.4km/h 68% 0.00in /  0mm 0 W/m2
05:24 13.8 °F /  -10.1 °C 5.2 °F /  -14.9 °C 29.79in /  1008.7hPa SW 2mph /  3.2km/h 4mph /  6.4km/h 68% 0.00in /  0mm 0 W/m2
05:29 13.8 °F /  -10.1 °C 5.2 °F /  -14.9 °C 29.79in /  1008.7hPa SW 2.3mph /  3.7km/h 6mph /  9.7km/h 68% 0.00in /  0mm 0 W/m2
05:34 13.8 °F /  -10.1 °C 5.2 °F /  -14.9 °C 29.79in /  1008.7hPa SW 2.2mph /  3.5km/h 6mph /  9.7km/h 68% 0.00in /  0mm 0 W/m2
05:39 13.9 °F /  -10.1 °C 5.3 °F /  -14.8 °C 29.80in /  1009hPa SW 1.7mph /  2.7km/h 6mph /  9.7km/h 68% 0.00in /  0mm 0 W/m2
05:44 13.9 °F /  -10.1 °C 5.3 °F /  -14.8 °C 29.79in /  1008.7hPa SW 2.8mph /  4.5km/h 9mph /  14.5km/h 68% 0.00in /  0mm 0 W/m2
05:49 13.9 °F /  -10.1 °C 5.3 °F /  -14.8 °C 29.79in /  1008.7hPa SW 1.3mph /  2.1km/h 9mph /  14.5km/h 68% 0.00in /  0mm 0 W/m2
05:54 13.9 °F /  -10.1 °C 5.3 °F /  -14.8 °C 29.80in /  1009hPa SW 2.9mph /  4.7km/h 9mph /  14.5km/h 68% 0.00in /  0mm 0 W/m2
05:59 14 °F /  -10 °C 5.4 °F /  -14.8 °C 29.79in /  1008.7hPa SW 2.3mph /  3.7km/h 9mph /  14.5km/h 68% 0.00in /  0mm 0 W/m2
06:04 14 °F /  -10 °C 5.4 °F /  -14.8 °C 29.79in /  1008.7hPa SW 3.1mph /  5km/h 9mph /  14.5km/h 68% 0.00in /  0mm 0 W/m2
06:09 14.1 °F /  -9.9 °C 5.5 °F /  -14.7 °C 29.79in /  1008.7hPa SW 3.8mph /  6.1km/h 9mph /  14.5km/h 68% 0.00in /  0mm 0 W/m2
06:14 14.1 °F /  -9.9 °C 5.5 °F /  -14.7 °C 29.80in /  1009hPa SW 3.5mph /  5.6km/h 9mph /  14.5km/h 68% 0.00in /  0mm 0 W/m2
06:19 14.1 °F /  -9.9 °C 5.5 °F /  -14.7 °C 29.80in /  1009hPa SW 1.9mph /  3.1km/h 9mph /  14.5km/h 68% 0.00in /  0mm 0 W/m2
06:24 14.2 °F /  -9.9 °C 5.6 °F /  -14.7 °C 29.80in /  1009hPa SW 1.9mph /  3.1km/h 9mph /  14.5km/h 68.1% 0.00in /  0mm 0 W/m2
06:29 14.2 °F /  -9.9 °C 5.7 °F /  -14.6 °C 29.80in /  1009hPa SW 2.8mph /  4.5km/h 9mph /  14.5km/h 68.4% 0.00in /  0mm 0 W/m2
06:34 14.3 °F /  -9.8 °C 5.7 °F /  -14.6 °C 29.80in /  1009hPa SW 2.5mph /  4km/h 9mph /  14.5km/h 68% 0.00in /  0mm 0 W/m2
06:39 14.3 °F /  -9.8 °C 5.9 °F /  -14.5 °C 29.81in /  1009.4hPa SW 2.5mph /  4km/h 6mph /  9.7km/h 68.8% 0.00in /  0mm 0 W/m2
06:44 14.3 °F /  -9.8 °C 6 °F /  -14.4 °C 29.81in /  1009.4hPa SW 2.5mph /  4km/h 6mph /  9.7km/h 68.8% 0.00in /  0mm 0 W/m2
06:49 14.4 °F /  -9.8 °C 6.1 °F /  -14.4 °C 29.81in /  1009.4hPa SW 2.2mph /  3.5km/h 6mph /  9.7km/h 69% 0.00in /  0mm 0 W/m2
06:54 14.4 °F /  -9.8 °C 6.1 °F /  -14.4 °C 29.81in /  1009.4hPa SW 2.4mph /  3.9km/h 6mph /  9.7km/h 69% 0.00in /  0mm 0 W/m2
06:59 14.5 °F /  -9.7 °C 6.2 °F /  -14.3 °C 29.81in /  1009.4hPa SW 2.9mph /  4.7km/h 6mph /  9.7km/h 69% 0.00in /  0mm 0 W/m2
07:04 14.5 °F /  -9.7 °C 6.2 °F /  -14.3 °C 29.81in /  1009.4hPa SW 3.1mph /  5km/h 10mph /  16.1km/h 69% 0.00in /  0mm 0 W/m2
07:09 14.6 °F /  -9.7 °C 6.3 °F /  -14.3 °C 29.81in /  1009.4hPa SW 3.1mph /  5km/h 10mph /  16.1km/h 69% 0.00in /  0mm 0 W/m2
07:14 14.7 °F /  -9.6 °C 6.4 °F /  -14.2 °C 29.81in /  1009.4hPa SW 1.5mph /  2.4km/h 10mph /  16.1km/h 69% 0.00in /  0mm 0 W/m2
07:19 14.7 °F /  -9.6 °C 6.4 °F /  -14.2 °C 29.82in /  1009.7hPa SW 2.5mph /  4km/h 10mph /  16.1km/h 69% 0.00in /  0mm 5 W/m2
07:24 14.8 °F /  -9.6 °C 6.5 °F /  -14.2 °C 29.82in /  1009.7hPa SW 2.2mph /  3.5km/h 10mph /  16.1km/h 69% 0.00in /  0mm 7 W/m2
07:29 14.8 °F /  -9.6 °C 6.5 °F /  -14.2 °C 29.82in /  1009.7hPa SW 2.5mph /  4km/h 10mph /  16.1km/h 69% 0.00in /  0mm 11 W/m2
07:34 14.8 °F /  -9.6 °C 6.5 °F /  -14.2 °C 29.82in /  1009.7hPa SW 0.4mph /  0.6km/h 10mph /  16.1km/h 69% 0.00in /  0mm 14 W/m2
07:39 14.9 °F /  -9.5 °C 6.6 °F /  -14.1 °C 29.82in /  1009.7hPa SW 0.3mph /  0.5km/h 4mph /  6.4km/h 69% 0.00in /  0mm 23 W/m2
07:44 15 °F /  -9.4 °C 6.7 °F /  -14.1 °C 29.82in /  1009.7hPa SW 1.7mph /  2.7km/h 5mph /  8km/h 69% 0.00in /  0mm 40 W/m2
07:49 15.2 °F /  -9.3 °C 6.9 °F /  -13.9 °C 29.82in /  1009.7hPa SW 2.1mph /  3.4km/h 6mph /  9.7km/h 69% 0.00in /  0mm 46 W/m2
07:54 15.6 °F /  -9.1 °C 7.3 °F /  -13.7 °C 29.82in /  1009.7hPa SW 3mph /  4.8km/h 6mph /  9.7km/h 69% 0.00in /  0mm 58 W/m2
07:59 16.1 °F /  -8.8 °C 7.7 °F /  -13.5 °C 29.82in /  1009.7hPa SW 3mph /  4.8km/h 7mph /  11.3km/h 68.8% 0.00in /  0mm 63 W/m2
08:04 16.8 °F /  -8.4 °C 8.1 °F /  -13.3 °C 29.82in /  1009.7hPa SW 0.5mph /  0.8km/h 3mph /  4.8km/h 68% 0.00in /  0mm 93 W/m2
08:09 17 °F /  -8.3 °C 8.2 °F /  -13.2 °C 29.82in /  1009.7hPa SW 1.6mph /  2.6km/h 5mph /  8km/h 67.8% 0.00in /  0mm 95 W/m2
08:14 17.5 °F /  -8.1 °C 8.4 °F /  -13.1 °C 29.83in /  1010hPa SW 2.8mph /  4.5km/h 10mph /  16.1km/h 67% 0.00in /  0mm 98 W/m2
08:19 17.8 °F /  -7.9 °C 8.5 °F /  -13.1 °C 29.83in /  1010hPa SW 3.9mph /  6.3km/h 10mph /  16.1km/h 66.4% 0.00in /  0mm 105 W/m2
08:24 18.1 °F /  -7.7 °C 8.3 °F /  -13.2 °C 29.83in /  1010hPa SW 2.7mph /  4.3km/h 10mph /  16.1km/h 65% 0.00in /  0mm 135 W/m2
08:29 18.3 °F /  -7.6 °C 8.5 °F /  -13.1 °C 29.83in /  1010hPa SW 4.2mph /  6.8km/h 10mph /  16.1km/h 64.8% 0.00in /  0mm 134 W/m2
08:34 18.5 °F /  -7.5 °C 8.4 °F /  -13.1 °C 29.83in /  1010hPa SW 2.7mph /  4.3km/h 10mph /  16.1km/h 64.1% 0.00in /  0mm 134 W/m2
08:39 18.6 °F /  -7.4 °C 8.4 °F /  -13.1 °C 29.83in /  1010hPa SW 2.8mph /  4.5km/h 10mph /  16.1km/h 64% 0.00in /  0mm 160 W/m2
08:44 18.8 °F /  -7.3 °C 8.9 °F /  -12.8 °C 29.83in /  1010hPa SW 1.1mph /  1.8km/h 10mph /  16.1km/h 64.8% 0.00in /  0mm 148 W/m2
08:49 19.1 °F /  -7.2 °C 9.2 °F /  -12.7 °C 29.83in /  1010hPa WSW 2.6mph /  4.2km/h 11mph /  17.7km/h 64.8% 0.00in /  0mm 141 W/m2
08:54 19.3 °F /  -7.1 °C 9.3 °F /  -12.6 °C 29.84in /  1010.4hPa SW 2.6mph /  4.2km/h 11mph /  17.7km/h 64.5% 0.00in /  0mm 148 W/m2
08:59 19.5 °F /  -6.9 °C 9.6 °F /  -12.4 °C 29.84in /  1010.4hPa SW 2.9mph /  4.7km/h 11mph /  17.7km/h 65% 0.00in /  0mm 163 W/m2
09:04 19.7 °F /  -6.8 °C 9.4 °F /  -12.6 °C 29.84in /  1010.4hPa SW 2.4mph /  3.9km/h 11mph /  17.7km/h 63.7% 0.00in /  0mm 162 W/m2
09:09 19.9 °F /  -6.7 °C 10 °F /  -12.2 °C 29.84in /  1010.4hPa SW 0.1mph /  0.2km/h 6mph /  9.7km/h 64.7% 0.00in /  0mm 118 W/m2
09:14 20.3 °F /  -6.5 °C 10.2 °F /  -12.1 °C 29.85in /  1010.7hPa SW 1.4mph /  2.3km/h 6mph /  9.7km/h 64.3% 0.00in /  0mm 156 W/m2
09:19 20.4 °F /  -6.4 °C 9.9 °F /  -12.3 °C 29.85in /  1010.7hPa SW 1.9mph /  3.1km/h 10mph /  16.1km/h 63.1% 0.00in /  0mm 137 W/m2
09:24 20.5 °F /  -6.4 °C 10 °F /  -12.2 °C 29.85in /  1010.7hPa SW 0.9mph /  1.4km/h 10mph /  16.1km/h 63.1% 0.00in /  0mm 137 W/m2
09:29 20.7 °F /  -6.3 °C 10.3 °F /  -12.1 °C 29.86in /  1011.1hPa WSW 1.2mph /  1.9km/h 10mph /  16.1km/h 63.6% 0.00in /  0mm 125 W/m2
09:34 20.8 °F /  -6.2 °C 10.2 °F /  -12.1 °C 29.86in /  1011.1hPa SW 2mph /  3.2km/h 10mph /  16.1km/h 63% 0.00in /  0mm 128 W/m2
09:39 20.8 °F /  -6.2 °C 10.2 °F /  -12.1 °C 29.86in /  1011.1hPa SSW 1.7mph /  2.7km/h 7mph /  11.3km/h 63% 0.00in /  0mm 88 W/m2
09:44 20.7 °F /  -6.3 °C 9.7 °F /  -12.4 °C 29.86in /  1011.1hPa SW 3.5mph /  5.6km/h 12mph /  19.3km/h 62% 0.00in /  0mm 114 W/m2
09:49 20.7 °F /  -6.3 °C 9.8 °F /  -12.3 °C 29.85in /  1010.7hPa SW 3.9mph /  6.3km/h 13mph /  20.9km/h 62.1% 0.00in /  0mm 84 W/m2
09:54 20.7 °F /  -6.3 °C 9.9 °F /  -12.3 °C 29.86in /  1011.1hPa SW 2mph /  3.2km/h 13mph /  20.9km/h 62.3% 0.00in /  0mm 148 W/m2
09:59 20.9 °F /  -6.2 °C 10.1 °F /  -12.2 °C 29.86in /  1011.1hPa SW 3.3mph /  5.3km/h 13mph /  20.9km/h 62.4% 0.00in /  0mm 128 W/m2
10:04 21.1 °F /  -6.1 °C 10.4 °F /  -12 °C 29.85in /  1010.7hPa SW 1.7mph /  2.7km/h 13mph /  20.9km/h 62.6% 0.00in /  0mm 179 W/m2
10:09 21.5 °F /  -5.8 °C 10.5 °F /  -11.9 °C 29.85in /  1010.7hPa SW 1mph /  1.6km/h 7mph /  11.3km/h 62% 0.00in /  0mm 171 W/m2
10:14 21.9 °F /  -5.6 °C 10.9 °F /  -11.7 °C 29.85in /  1010.7hPa SSW 2.9mph /  4.7km/h 8mph /  12.9km/h 62% 0.00in /  0mm 267 W/m2
10:19 22.4 °F /  -5.3 °C 11.1 °F /  -11.6 °C 29.84in /  1010.4hPa SW 4.5mph /  7.2km/h 11mph /  17.7km/h 61.2% 0.00in /  0mm 332 W/m2
10:24 22.8 °F /  -5.1 °C 11.2 °F /  -11.6 °C 29.84in /  1010.4hPa SW 3.1mph /  5km/h 11mph /  17.7km/h 60.4% 0.00in /  0mm 410 W/m2
10:29 23.4 °F /  -4.8 °C 11.5 °F /  -11.4 °C 29.84in /  1010.4hPa SW 2mph /  3.2km/h 11mph /  17.7km/h 60% 0.00in /  0mm 417 W/m2
10:34 24 °F /  -4.4 °C 12.1 °F /  -11.1 °C 29.83in /  1010hPa SW 0.3mph /  0.5km/h 11mph /  17.7km/h 60% 0.00in /  0mm 418 W/m2
10:39 24.5 °F /  -4.2 °C 12 °F /  -11.1 °C 29.83in /  1010hPa WSW 2.9mph /  4.7km/h 10mph /  16.1km/h 58.2% 0.00in /  0mm 422 W/m2
10:44 24.7 °F /  -4.1 °C 11.6 °F /  -11.3 °C 29.83in /  1010hPa SW 3.1mph /  5km/h 10mph /  16.1km/h 57% 0.00in /  0mm 346 W/m2
10:49 24.7 °F /  -4.1 °C 11.7 °F /  -11.3 °C 29.83in /  1010hPa SW 2.1mph /  3.4km/h 11mph /  17.7km/h 57% 0.00in /  0mm 158 W/m2
10:54 25 °F /  -3.9 °C 12.2 °F /  -11 °C 29.83in /  1010hPa SW 1.3mph /  2.1km/h 11mph /  17.7km/h 57.8% 0.00in /  0mm 74 W/m2
10:59 25.3 °F /  -3.7 °C 12.1 °F /  -11.1 °C 29.83in /  1010hPa SW 3.6mph /  5.8km/h 11mph /  17.7km/h 56.9% 0.00in /  0mm 144 W/m2
11:04 25.4 °F /  -3.7 °C 12.4 °F /  -10.9 °C 29.82in /  1009.7hPa SW 3.6mph /  5.8km/h 13mph /  20.9km/h 57.1% 0.00in /  0mm 183 W/m2
11:09 25.4 °F /  -3.7 °C 11.8 °F /  -11.2 °C 29.82in /  1009.7hPa WSW 4.3mph /  6.9km/h 13mph /  20.9km/h 55.9% 0.00in /  0mm 158 W/m2
11:14 25.2 °F /  -3.8 °C 11.5 °F /  -11.4 °C 29.82in /  1009.7hPa SW 3.1mph /  5km/h 13mph /  20.9km/h 55.6% 0.00in /  0mm 70 W/m2
11:19 25.2 °F /  -3.8 °C 12.1 °F /  -11.1 °C 29.82in /  1009.7hPa WSW 2.7mph /  4.3km/h 13mph /  20.9km/h 56.9% 0.00in /  0mm 104 W/m2
11:24 25.4 °F /  -3.7 °C 12.2 °F /  -11 °C 29.82in /  1009.7hPa SW 1.4mph /  2.3km/h 13mph /  20.9km/h 56.6% 0.00in /  0mm 58 W/m2
11:29 25.8 °F /  -3.4 °C 12.5 °F /  -10.8 °C 29.82in /  1009.7hPa WSW 2mph /  3.2km/h 13mph /  20.9km/h 56.6% 0.00in /  0mm 109 W/m2
11:34 25.9 °F /  -3.4 °C 12 °F /  -11.1 °C 29.82in /  1009.7hPa WSW 1.8mph /  2.9km/h 13mph /  20.9km/h 55.2% 0.00in /  0mm 387 W/m2
11:39 26.1 °F /  -3.3 °C 12.9 °F /  -10.6 °C 29.82in /  1009.7hPa WSW 1.1mph /  1.8km/h 6mph /  9.7km/h 56.8% 0.00in /  0mm 176 W/m2
11:44 26.5 °F /  -3.1 °C 13 °F /  -10.6 °C 29.82in /  1009.7hPa SW 2.5mph /  4km/h 10mph /  16.1km/h 56.3% 0.00in /  0mm 123 W/m2
11:49 26.8 °F /  -2.9 °C 13.2 °F /  -10.4 °C 29.81in /  1009.4hPa WSW 2.9mph /  4.7km/h 10mph /  16.1km/h 55.8% 0.00in /  0mm 251 W/m2
11:54 26.9 °F /  -2.8 °C 12.5 °F /  -10.8 °C 29.81in /  1009.4hPa SW 3.8mph /  6.1km/h 10mph /  16.1km/h 54% 0.00in /  0mm 366 W/m2
11:59 27.1 °F /  -2.7 °C 13.1 °F /  -10.5 °C 29.81in /  1009.4hPa WSW 1.5mph /  2.4km/h 10mph /  16.1km/h 55.1% 0.00in /  0mm 473 W/m2
12:00 27.2 °F /  -2.7 °C 13.2 °F /  -10.4 °C 29.81in /  1009.4hPa WSW 5mph /  8km/h 10mph /  16.1km/h 55% 0.00in /  0mm 469 W/m2
12:09 27.5 °F /  -2.5 °C 12.8 °F /  -10.7 °C 29.80in /  1009hPa SW 2.9mph /  4.7km/h 12mph /  19.3km/h 53.2% 0.00in /  0mm 459 W/m2
12:14 27.5 °F /  -2.5 °C 12.6 °F /  -10.8 °C 29.80in /  1009hPa WSW 3.3mph /  5.3km/h 12mph /  19.3km/h 53% 0.00in /  0mm 476 W/m2
12:19 27.6 °F /  -2.4 °C 12.7 °F /  -10.7 °C 29.80in /  1009hPa SW 3.9mph /  6.3km/h 12mph /  19.3km/h 53% 0.00in /  0mm 476 W/m2
12:24 27.6 °F /  -2.4 °C 12.7 °F /  -10.7 °C 29.80in /  1009hPa SW 5mph /  8km/h 16mph /  25.7km/h 52.8% 0.00in /  0mm 148 W/m2
12:29 27.5 °F /  -2.5 °C 12.2 °F /  -11 °C 29.80in /  1009hPa SW 5.2mph /  8.4km/h 16mph /  25.7km/h 52.1% 0.00in /  0mm 74 W/m2
12:34 27.4 °F /  -2.6 °C 12.4 °F /  -10.9 °C 29.80in /  1009hPa SW 2.2mph /  3.5km/h 16mph /  25.7km/h 52.9% 0.00in /  0mm 167 W/m2
12:39 27.8 °F /  -2.3 °C 13.1 °F /  -10.5 °C 29.80in /  1009hPa SW 1.8mph /  2.9km/h 12mph /  19.3km/h 53.5% 0.00in /  0mm 343 W/m2
12:40 28.2 °F /  -2.1 °C 13 °F /  -10.6 °C 29.80in /  1009hPa WSW 4mph /  6.4km/h 12mph /  19.3km/h 52.3% 0.00in /  0mm 299 W/m2
13:30 29.6 °F /  -1.3 °C 12.8 °F /  -10.7 °C 29.81in /  1009.4hPa SW 3mph /  4.8km/h 16mph /  25.7km/h 49% 0.00in /  0mm 246 W/m2
14:30 29.9 °F /  -1.2 °C 13.1 °F /  -10.5 °C 29.81in /  1009.4hPa WSW 3mph /  4.8km/h 13mph /  20.9km/h 49% 0.00in /  0mm 131 W/m2
15:00 28.9 °F /  -1.7 °C 11.7 °F /  -11.3 °C 29.82in /  1009.7hPa WSW 3mph /  4.8km/h 15mph /  24.1km/h 48% 0.00in /  0mm 46 W/m2
15:30 28 °F /  -2.2 °C 12.2 °F /  -11 °C 29.83in /  1010hPa West 2mph /  3.2km/h 12mph /  19.3km/h 51% 0.00in /  0mm 22 W/m2
16:04 26.9 °F /  -2.8 °C 12.1 °F /  -11.1 °C 29.84in /  1010.4hPa Calm   2mph /  3.2km/h 53% 0.00in /  0mm 9 W/m2
16:09 26.8 °F /  -2.9 °C 11.9 °F /  -11.2 °C 29.84in /  1010.4hPa SW 0.8mph /  1.3km/h 7mph /  11.3km/h 53% 0.00in /  0mm 9 W/m2
16:14 26.6 °F /  -3 °C 12.2 °F /  -11 °C 29.84in /  1010.4hPa SW 0.4mph /  0.6km/h 7mph /  11.3km/h 53.9% 0.00in /  0mm 7 W/m2
16:19 26.5 °F /  -3.1 °C 12.1 °F /  -11.1 °C 29.84in /  1010.4hPa SW 0.1mph /  0.2km/h 7mph /  11.3km/h 54% 0.00in /  0mm 5 W/m2
16:24 26.4 °F /  -3.1 °C 12.2 °F /  -11 °C 29.84in /  1010.4hPa Calm   7mph /  11.3km/h 54.4% 0.00in /  0mm 0 W/m2
16:29 26.3 °F /  -3.2 °C 12.2 °F /  -11 °C 29.85in /  1010.7hPa SW 0.7mph /  1.1km/h 7mph /  11.3km/h 54.5% 0.00in /  0mm 0 W/m2
16:34 26.2 °F /  -3.2 °C 11.9 °F /  -11.2 °C 29.85in /  1010.7hPa SW 0.9mph /  1.4km/h 7mph /  11.3km/h 54% 0.00in /  0mm 0 W/m2
16:39 26.2 °F /  -3.2 °C 12 °F /  -11.1 °C 29.85in /  1010.7hPa SW 0.3mph /  0.5km/h 5mph /  8km/h 54.4% 0.00in /  0mm 0 W/m2
16:44 26.1 °F /  -3.3 °C 12.2 °F /  -11 °C 29.85in /  1010.7hPa SW 0.2mph /  0.3km/h 5mph /  8km/h 55% 0.00in /  0mm 0 W/m2
16:49 26 °F /  -3.3 °C 12.4 °F /  -10.9 °C 29.85in /  1010.7hPa SW 0.3mph /  0.5km/h 5mph /  8km/h 55.7% 0.00in /  0mm 0 W/m2
16:54 25.9 °F /  -3.4 °C 12.4 °F /  -10.9 °C 29.85in /  1010.7hPa SW 0.2mph /  0.3km/h 5mph /  8km/h 56% 0.00in /  0mm 0 W/m2
16:59 25.8 °F /  -3.4 °C 12.3 °F /  -10.9 °C 29.85in /  1010.7hPa Calm   5mph /  8km/h 56% 0.00in /  0mm 0 W/m2
17:04 25.7 °F /  -3.5 °C 12.6 °F /  -10.8 °C 29.85in /  1010.7hPa SW 0.2mph /  0.3km/h 5mph /  8km/h 57% 0.00in /  0mm 0 W/m2
17:09 25.6 °F /  -3.6 °C 12.4 °F /  -10.9 °C 29.85in /  1010.7hPa Calm   5mph /  8km/h 57% 0.00in /  0mm 0 W/m2
17:14 25.4 °F /  -3.7 °C 12.4 °F /  -10.9 °C 29.85in /  1010.7hPa Calm   5mph /  8km/h 57.1% 0.00in /  0mm 0 W/m2
17:19 25.3 °F /  -3.7 °C 12.6 °F /  -10.8 °C 29.85in /  1010.7hPa Calm   5mph /  8km/h 58% 0.00in /  0mm 0 W/m2
17:24 25.2 °F /  -3.8 °C 12.1 °F /  -11.1 °C 29.86in /  1011.1hPa Calm   5mph /  8km/h 57.1% 0.00in /  0mm 0 W/m2
17:29 25 °F /  -3.9 °C 12.3 °F /  -10.9 °C 29.86in /  1011.1hPa Calm   5mph /  8km/h 58% 0.00in /  0mm 0 W/m2
17:34 24.8 °F /  -4 °C 12.2 °F /  -11 °C 29.86in /  1011.1hPa Calm   5mph /  8km/h 58.2% 0.00in /  0mm 0 W/m2
17:39 24.7 °F /  -4.1 °C 12.4 °F /  -10.9 °C 29.86in /  1011.1hPa Calm     59% 0.00in /  0mm 0 W/m2
17:44 24.5 °F /  -4.2 °C 12.6 °F /  -10.8 °C 29.86in /  1011.1hPa Calm     59.8% 0.00in /  0mm 0 W/m2
17:49 24.5 °F /  -4.2 °C 12.6 °F /  -10.8 °C 29.87in /  1011.4hPa Calm     60% 0.00in /  0mm 0 W/m2
17:54 24.4 °F /  -4.2 °C 12.5 °F /  -10.8 °C 29.87in /  1011.4hPa Calm     60% 0.00in /  0mm 0 W/m2
17:59 24.4 °F /  -4.2 °C 12.5 °F /  -10.8 °C 29.87in /  1011.4hPa Calm     60% 0.00in /  0mm 0 W/m2
18:04 24.4 °F /  -4.2 °C 12.5 °F /  -10.8 °C 29.87in /  1011.4hPa Calm     60% 0.00in /  0mm 0 W/m2
18:09 24.3 °F /  -4.3 °C 12.4 °F /  -10.9 °C 29.87in /  1011.4hPa Calm     60% 0.00in /  0mm 0 W/m2
18:14 24.1 °F /  -4.4 °C 12.8 °F /  -10.7 °C 29.88in /  1011.7hPa Calm     61.4% 0.00in /  0mm 0 W/m2
18:19 24 °F /  -4.4 °C 12.9 °F /  -10.6 °C 29.88in /  1011.7hPa Calm     62% 0.00in /  0mm 0 W/m2
18:24 23.8 °F /  -4.6 °C 12.7 °F /  -10.7 °C 29.88in /  1011.7hPa Calm     62% 0.00in /  0mm 0 W/m2
18:29 23.6 °F /  -4.7 °C 12.5 °F /  -10.8 °C 29.89in /  1012.1hPa Calm     62% 0.00in /  0mm 0 W/m2
18:34 23.4 °F /  -4.8 °C 12.3 °F /  -10.9 °C 29.89in /  1012.1hPa Calm     62% 0.00in /  0mm 0 W/m2
18:39 23.2 °F /  -4.9 °C 12.4 °F /  -10.9 °C 29.89in /  1012.1hPa Calm     62.9% 0.00in /  0mm 0 W/m2
18:44 23 °F /  -5 °C 12.3 °F /  -10.9 °C 29.89in /  1012.1hPa Calm     63% 0.00in /  0mm 0 W/m2
18:49 22.9 °F /  -5.1 °C 12.5 °F /  -10.8 °C 29.89in /  1012.1hPa Calm     64% 0.00in /  0mm 0 W/m2
18:54 22.8 °F /  -5.1 °C 12.7 °F /  -10.7 °C 29.89in /  1012.1hPa Calm     64.8% 0.00in /  0mm 0 W/m2
18:59 22.7 °F /  -5.2 °C 12.7 °F /  -10.7 °C 29.90in /  1012.4hPa Calm     65% 0.00in /  0mm 0 W/m2
19:04 22.6 °F /  -5.2 °C 12.6 °F /  -10.8 °C 29.90in /  1012.4hPa Calm     65% 0.00in /  0mm 0 W/m2
19:09 22.6 °F /  -5.2 °C 12.6 °F /  -10.8 °C 29.90in /  1012.4hPa Calm     65% 0.00in /  0mm 0 W/m2
19:14 22.5 °F /  -5.3 °C 12.5 °F /  -10.8 °C 29.90in /  1012.4hPa Calm     65% 0.00in /  0mm 0 W/m2
19:17 22.5 °F /  -5.3 °C 12.5 °F /  -10.8 °C 29.90in /  1012.4hPa Calm     65% 0.00in /  0mm 0 W/m2
19:30 22.5 °F /  -5.3 °C 12.9 °F /  -10.6 °C 29.90in /  1012.4hPa Calm   1mph /  1.6km/h 66% 0.00in /  0mm 0 W/m2
20:04 22.2 °F /  -5.4 °C 12.6 °F /  -10.8 °C 29.92in /  1013.1hPa Calm   1mph /  1.6km/h 66% 0.00in /  0mm 0 W/m2
20:09 22.2 °F /  -5.4 °C 12.6 °F /  -10.8 °C 29.92in /  1013.1hPa Calm     66% 0.00in /  0mm 0 W/m2
20:14 22.3 °F /  -5.4 °C 14.4 °F /  -9.8 °C 29.92in /  1013.1hPa Calm     71.2% 0.00in /  0mm 0 W/m2
20:19 22.2 °F /  -5.4 °C 13.3 °F /  -10.4 °C 29.92in /  1013.1hPa Calm     68.1% 0.00in /  0mm 0 W/m2
20:24 22.3 °F /  -5.4 °C 12.7 °F /  -10.7 °C 29.92in /  1013.1hPa Calm     66% 0.00in /  0mm 0 W/m2
20:29 22.3 °F /  -5.4 °C 12.5 °F /  -10.8 °C 29.92in /  1013.1hPa SW 0.5mph /  0.8km/h 4mph /  6.4km/h 65.4% 0.00in /  0mm 0 W/m2
20:34 22.4 °F /  -5.3 °C 12.4 °F /  -10.9 °C 29.92in /  1013.1hPa Calm   4mph /  6.4km/h 65% 0.00in /  0mm 0 W/m2
20:39 22.4 °F /  -5.3 °C 12.4 °F /  -10.9 °C 29.92in /  1013.1hPa Calm     65% 0.00in /  0mm 0 W/m2
21:00 22.6 °F /  -5.2 °C 12.6 °F /  -10.8 °C 29.92in /  1013.1hPa Calm   6mph /  9.7km/h 65% 0.00in /  0mm 0 W/m2
21:30 22.6 °F /  -5.2 °C 12.6 °F /  -10.8 °C 29.93in /  1013.4hPa WSW 1mph /  1.6km/h 12mph /  19.3km/h 65% 0.00in /  0mm 0 W/m2
22:00 22.5 °F /  -5.3 °C 12.5 °F /  -10.8 °C 29.94in /  1013.8hPa SW 2mph /  3.2km/h 9mph /  14.5km/h 65% 0.00in /  0mm 0 W/m2
22:30 22.5 °F /  -5.3 °C 12.5 °F /  -10.8 °C 29.95in /  1014.1hPa WSW 3mph /  4.8km/h 12mph /  19.3km/h 65% 0.00in /  0mm 0 W/m2
23:04 22.2 °F /  -5.4 °C 12.3 °F /  -10.9 °C 29.95in /  1014.1hPa SW 2.9mph /  4.7km/h 7mph /  11.3km/h 65.2% 0.00in /  0mm 0 W/m2
23:09 22.2 °F /  -5.4 °C 12.3 °F /  -10.9 °C 29.96in /  1014.4hPa WSW 3.2mph /  5.1km/h 10mph /  16.1km/h 65% 0.00in /  0mm 0 W/m2
23:14 22.2 °F /  -5.4 °C 12.6 °F /  -10.8 °C 29.96in /  1014.4hPa WSW 2.6mph /  4.2km/h 10mph /  16.1km/h 66% 0.00in /  0mm 0 W/m2
23:19 22.2 °F /  -5.4 °C 12.6 °F /  -10.8 °C 29.96in /  1014.4hPa WSW 3.5mph /  5.6km/h 10mph /  16.1km/h 66% 0.00in /  0mm 0 W/m2
23:24 22.2 °F /  -5.4 °C 12.6 °F /  -10.8 °C 29.96in /  1014.4hPa WSW 3.4mph /  5.5km/h 11mph /  17.7km/h 66% 0.00in /  0mm 0 W/m2
23:29 22.1 °F /  -5.5 °C 12.5 °F /  -10.8 °C 29.96in /  1014.4hPa WSW 4.4mph /  7.1km/h 11mph /  17.7km/h 66% 0.00in /  0mm 0 W/m2
23:34 22.1 °F /  -5.5 °C 12.6 °F /  -10.8 °C 29.97in /  1014.8hPa WSW 3.1mph /  5km/h 11mph /  17.7km/h 66.2% 0.00in /  0mm 0 W/m2
23:39 22 °F /  -5.6 °C 12.7 °F /  -10.7 °C 29.96in /  1014.4hPa WSW 3.1mph /  5km/h 10mph /  16.1km/h 66.7% 0.00in /  0mm 0 W/m2
23:44 22 °F /  -5.6 °C 12.6 °F /  -10.8 °C 29.96in /  1014.4hPa WSW 3.7mph /  6km/h 11mph /  17.7km/h 66.6% 0.00in /  0mm 0 W/m2
23:49 22 °F /  -5.6 °C 12.4 °F /  -10.9 °C 29.96in /  1014.4hPa WSW 3.7mph /  6km/h 14mph /  22.5km/h 66% 0.00in /  0mm 0 W/m2
23:54 22 °F /  -5.6 °C 12.4 °F /  -10.9 °C 29.96in /  1014.4hPa WSW 3mph /  4.8km/h 14mph /  22.5km/h 66% 0.00in /  0mm 0 W/m2
23:59 21.9 °F /  -5.6 °C 12.3 °F /  -10.9 °C 29.97in /  1014.8hPa WSW 2.8mph /  4.5km/h 14mph /  22.5km/h 66% 0.00in /  0mm 0 W/m2
Hartford County Weather
Compliments of Weather Underground - 4 mb